createdAt,value
2018-01-29T00:03:00.000Z,100047
2018-01-29T00:08:00.000Z,100026
2018-01-29T00:13:00.000Z,100026
2018-01-29T00:18:00.000Z,100025
2018-01-29T00:23:00.000Z,100046
2018-01-29T00:28:00.000Z,100044
2018-01-29T00:33:00.000Z,100039
2018-01-29T00:38:00.000Z,100025
2018-01-29T00:43:00.000Z,100039
2018-01-29T00:48:00.000Z,100041
2018-01-29T00:53:00.000Z,100030
2018-01-29T00:58:00.000Z,100031
2018-01-29T01:03:00.000Z,100026
2018-01-29T01:08:00.000Z,100036
2018-01-29T01:13:00.000Z,100027
2018-01-29T01:18:00.000Z,100035
2018-01-29T01:23:00.000Z,100043
2018-01-29T01:28:00.000Z,100036
2018-01-29T01:33:00.000Z,100035
2018-01-29T01:38:00.000Z,100028
2018-01-29T01:43:00.000Z,100023
2018-01-29T01:48:00.000Z,100007
2018-01-29T01:53:00.000Z,100027
2018-01-29T01:58:00.000Z,100029
2018-01-29T02:03:00.000Z,100018
2018-01-29T02:08:00.000Z,100013
2018-01-29T02:13:00.000Z,100020
2018-01-29T02:18:00.000Z,100009
2018-01-29T02:23:00.000Z,100023
2018-01-29T02:28:00.000Z,100019
2018-01-29T02:33:00.000Z,100002
2018-01-29T02:39:00.000Z,99991
2018-01-29T02:44:00.000Z,99982
2018-01-29T02:49:00.000Z,99985
2018-01-29T02:54:00.000Z,99979
2018-01-29T02:59:00.000Z,99972
2018-01-29T03:04:00.000Z,99982
2018-01-29T03:09:00.000Z,99969
2018-01-29T03:14:00.000Z,99962
2018-01-29T03:19:00.000Z,99963
2018-01-29T03:24:00.000Z,99962
2018-01-29T03:29:00.000Z,99954
2018-01-29T03:34:00.000Z,99957
2018-01-29T03:39:00.000Z,99956
2018-01-29T03:44:00.000Z,99952
2018-01-29T03:49:00.000Z,99955
2018-01-29T03:54:00.000Z,99955
2018-01-29T03:59:00.000Z,99950
2018-01-29T04:04:00.000Z,99954
2018-01-29T04:09:00.000Z,99962
2018-01-29T04:14:00.000Z,99959
2018-01-29T04:19:00.000Z,99953
2018-01-29T04:24:00.000Z,99948
2018-01-29T04:29:00.000Z,99949
2018-01-29T04:34:00.000Z,99945
2018-01-29T04:39:00.000Z,99941
2018-01-29T04:44:00.000Z,99944
2018-01-29T04:49:00.000Z,99939
2018-01-29T04:54:00.000Z,99923
2018-01-29T04:59:00.000Z,99942
2018-01-29T05:04:00.000Z,99941
2018-01-29T05:09:00.000Z,99951
2018-01-29T05:14:00.000Z,99943
2018-01-29T05:19:00.000Z,99944
2018-01-29T05:24:00.000Z,99936
2018-01-29T05:29:00.000Z,99945
2018-01-29T05:34:00.000Z,99933
2018-01-29T05:39:00.000Z,99933
2018-01-29T05:44:00.000Z,99928
2018-01-29T05:49:00.000Z,99929
2018-01-29T05:54:00.000Z,99931
2018-01-29T05:59:00.000Z,99927
2018-01-29T06:04:00.000Z,99933
2018-01-29T06:09:00.000Z,99908
2018-01-29T06:14:00.000Z,99906
2018-01-29T06:19:00.000Z,99932
2018-01-29T06:24:00.000Z,99936
2018-01-29T06:29:00.000Z,99930
2018-01-29T06:34:00.000Z,99931
2018-01-29T06:39:00.000Z,99927
2018-01-29T06:44:00.000Z,99927
2018-01-29T06:49:00.000Z,99917
2018-01-29T06:54:00.000Z,99920
2018-01-29T06:59:00.000Z,99917
2018-01-29T07:04:00.000Z,99917
2018-01-29T07:09:00.000Z,99916
2018-01-29T07:14:00.000Z,99930
2018-01-29T07:19:00.000Z,99947
2018-01-29T07:24:00.000Z,99928
2018-01-29T07:29:00.000Z,99954
2018-01-29T07:34:00.000Z,99934
2018-01-29T07:39:00.000Z,99929
2018-01-29T07:44:00.000Z,99917
2018-01-29T07:49:00.000Z,99919
2018-01-29T07:54:00.000Z,99932
2018-01-29T07:59:00.000Z,99925
2018-01-29T08:04:00.000Z,99933
2018-01-29T08:09:00.000Z,99944
2018-01-29T08:14:00.000Z,99939
2018-01-29T08:19:00.000Z,99935
2018-01-29T08:24:00.000Z,99935
2018-01-29T08:29:00.000Z,99920
2018-01-29T08:34:00.000Z,99929
2018-01-29T08:39:00.000Z,99921
2018-01-29T08:45:00.000Z,99914
2018-01-29T08:50:00.000Z,99925
2018-01-29T08:55:00.000Z,99917
2018-01-29T09:00:00.000Z,99928
2018-01-29T09:05:00.000Z,99918
2018-01-29T09:10:00.000Z,99914
2018-01-29T09:15:00.000Z,99915
2018-01-29T09:20:00.000Z,99911
2018-01-29T09:25:00.000Z,99920
2018-01-29T09:30:00.000Z,99920
2018-01-29T09:35:00.000Z,99928
2018-01-29T09:40:00.000Z,99916
2018-01-29T09:45:00.000Z,99903
2018-01-29T09:50:00.000Z,99902
2018-01-29T09:55:00.000Z,99877
2018-01-29T10:00:00.000Z,99869
2018-01-29T10:05:00.000Z,99844
2018-01-29T10:10:00.000Z,99843
2018-01-29T10:15:00.000Z,99838
2018-01-29T10:20:00.000Z,99835
2018-01-29T10:25:00.000Z,99819
2018-01-29T10:30:00.000Z,99809
2018-01-29T10:35:00.000Z,99809
2018-01-29T10:40:00.000Z,99802
2018-01-29T10:45:00.000Z,99795
2018-01-29T10:50:00.000Z,99798
2018-01-29T10:55:00.000Z,99765
2018-01-29T11:00:00.000Z,99749
2018-01-29T11:05:00.000Z,99759
2018-01-29T11:10:00.000Z,99731
2018-01-29T11:15:00.000Z,99709
2018-01-29T11:20:00.000Z,99714
2018-01-29T11:25:00.000Z,99702
2018-01-29T11:30:00.000Z,99687
2018-01-29T11:35:00.000Z,99702
2018-01-29T11:40:00.000Z,99700
2018-01-29T11:45:00.000Z,99686
2018-01-29T11:50:00.000Z,99674
2018-01-29T11:55:00.000Z,99652
2018-01-29T12:00:00.000Z,99648
2018-01-29T12:05:00.000Z,99636
2018-01-29T12:10:00.000Z,99632
2018-01-29T12:15:00.000Z,99616
2018-01-29T12:20:00.000Z,99603
2018-01-29T12:25:00.000Z,99597
2018-01-29T12:30:00.000Z,99580
2018-01-29T12:35:00.000Z,99578
2018-01-29T12:40:00.000Z,99575
2018-01-29T12:45:00.000Z,99568
2018-01-29T12:50:00.000Z,99565
2018-01-29T12:55:00.000Z,99562
2018-01-29T13:00:00.000Z,99566
2018-01-29T13:05:00.000Z,99545
2018-01-29T13:10:00.000Z,99529
2018-01-29T13:15:00.000Z,99543
2018-01-29T13:20:00.000Z,99514
2018-01-29T13:25:00.000Z,99509
2018-01-29T13:30:00.000Z,99507
2018-01-29T13:35:00.000Z,99487
2018-01-29T13:40:00.000Z,99476
2018-01-29T13:45:00.000Z,99471
2018-01-29T13:50:00.000Z,99469
2018-01-29T13:55:00.000Z,99491
2018-01-29T14:00:00.000Z,99471
2018-01-29T14:05:00.000Z,99465
2018-01-29T14:10:00.000Z,99472
2018-01-29T14:15:00.000Z,99458
2018-01-29T14:20:00.000Z,99448
2018-01-29T14:25:00.000Z,99455
2018-01-29T14:30:00.000Z,99441
2018-01-29T14:35:00.000Z,99444
2018-01-29T14:40:00.000Z,99431
2018-01-29T14:46:00.000Z,99416
2018-01-29T14:51:00.000Z,99424
2018-01-29T14:56:00.000Z,99410
2018-01-29T15:01:00.000Z,99405
2018-01-29T15:06:00.000Z,99400
2018-01-29T15:11:00.000Z,99398
2018-01-29T15:16:00.000Z,99388
2018-01-29T15:21:00.000Z,99384
2018-01-29T15:26:00.000Z,99374
2018-01-29T15:31:00.000Z,99364
2018-01-29T15:36:00.000Z,99378
2018-01-29T15:41:00.000Z,99348
2018-01-29T15:46:00.000Z,99352
2018-01-29T15:51:00.000Z,99349
2018-01-29T15:56:00.000Z,99335
2018-01-29T16:01:00.000Z,99332
2018-01-29T16:06:00.000Z,99330
2018-01-29T16:11:00.000Z,99338
2018-01-29T16:16:00.000Z,99338
2018-01-29T16:21:00.000Z,99344
2018-01-29T16:26:00.000Z,99337
2018-01-29T16:31:00.000Z,99343
2018-01-29T16:36:00.000Z,99347
2018-01-29T16:41:00.000Z,99340
2018-01-29T16:46:00.000Z,99340
2018-01-29T16:51:00.000Z,99340
2018-01-29T16:56:00.000Z,99328
2018-01-29T17:01:00.000Z,99318
2018-01-29T17:06:00.000Z,99314
2018-01-29T17:11:00.000Z,99310
2018-01-29T17:16:00.000Z,99311
2018-01-29T17:21:00.000Z,99303
2018-01-29T17:26:00.000Z,99303
2018-01-29T17:31:00.000Z,99307
2018-01-29T17:36:00.000Z,99303
2018-01-29T17:41:00.000Z,99297
2018-01-29T17:46:00.000Z,99294
2018-01-29T17:51:00.000Z,99292
2018-01-29T17:56:00.000Z,99312
2018-01-29T18:01:00.000Z,99296
2018-01-29T18:06:00.000Z,99288
2018-01-29T18:11:00.000Z,99272
2018-01-29T18:16:00.000Z,99270
2018-01-29T18:21:00.000Z,99263
2018-01-29T18:26:00.000Z,99270
2018-01-29T18:31:00.000Z,99271
2018-01-29T18:36:00.000Z,99258
2018-01-29T18:41:00.000Z,99252
2018-01-29T18:46:00.000Z,99258
2018-01-29T18:51:00.000Z,99258
2018-01-29T18:56:00.000Z,99269
2018-01-29T19:01:00.000Z,99273
2018-01-29T19:06:00.000Z,99276
2018-01-29T19:11:00.000Z,99267
2018-01-29T19:16:00.000Z,99274
2018-01-29T19:21:00.000Z,99263
2018-01-29T19:26:00.000Z,99269
2018-01-29T19:31:00.000Z,99269
2018-01-29T19:36:00.000Z,99263
2018-01-29T19:41:00.000Z,99253
2018-01-29T19:46:00.000Z,99260
2018-01-29T19:51:00.000Z,99257
2018-01-29T19:56:00.000Z,99257
2018-01-29T20:01:00.000Z,99238
2018-01-29T20:06:00.000Z,99229
2018-01-29T20:11:00.000Z,99231
2018-01-29T20:16:00.000Z,99239
2018-01-29T20:21:00.000Z,99226
2018-01-29T20:26:00.000Z,99228
2018-01-29T20:31:00.000Z,99218
2018-01-29T20:37:00.000Z,99228
2018-01-29T20:42:00.000Z,99216
2018-01-29T20:47:00.000Z,99217
2018-01-29T20:52:00.000Z,99218
2018-01-29T20:57:00.000Z,99211
2018-01-29T21:02:00.000Z,99210
2018-01-29T21:07:00.000Z,99222
2018-01-29T21:12:00.000Z,99240
2018-01-29T21:17:00.000Z,99242
2018-01-29T21:22:00.000Z,99225
2018-01-29T21:27:00.000Z,99236
2018-01-29T21:32:00.000Z,99245
2018-01-29T21:37:00.000Z,99238
2018-01-29T21:42:00.000Z,99230
2018-01-29T21:47:00.000Z,99231
2018-01-29T21:52:00.000Z,99220
2018-01-29T21:57:00.000Z,99220
2018-01-29T22:02:00.000Z,99222
2018-01-29T22:07:00.000Z,99217
2018-01-29T22:12:00.000Z,99245
2018-01-29T22:17:00.000Z,99252
2018-01-29T22:22:00.000Z,99291
2018-01-29T22:27:00.000Z,99292
2018-01-29T22:32:00.000Z,99299
2018-01-29T22:37:00.000Z,99306
2018-01-29T22:42:00.000Z,99300
2018-01-29T22:47:00.000Z,99331
2018-01-29T22:52:00.000Z,99377
2018-01-29T22:57:00.000Z,99381
2018-01-29T23:02:00.000Z,99404
2018-01-29T23:07:00.000Z,99419
2018-01-29T23:12:00.000Z,99405
2018-01-29T23:17:00.000Z,99435
2018-01-29T23:22:00.000Z,99403
2018-01-29T23:27:00.000Z,99404
2018-01-29T23:32:00.000Z,99401
2018-01-29T23:37:00.000Z,99418
2018-01-29T23:42:00.000Z,99434
2018-01-29T23:47:00.000Z,99441
2018-01-29T23:52:00.000Z,99446
2018-01-29T23:57:00.000Z,99464
